Terminal Aerodrome Forecast
Issued by NWS

Home | Current Version | Previous Version | Text Only | Print | Product List | Glossary On
Versions: 1 2 3 4 5 6 7 8 9 10 11 12 13 14 15 16
000
FTUS42 KJAX 240850 AAA
TAFCRG
TAF AMD
KCRG 240850Z 2409/2506 22008KT P6SM SCT015 BKN050
     FM241000 24008KT P6SM VCSH BKN015 BKN035
      TEMPO 2410/2412 27012G20KT BKN015 OVC025
     FM241300 26010KT P6SM SCT025 BKN040
     FM241600 27012G18KT P6SM SCT050
     FM242300 27007KT P6SM SCT030=

USA.gov is the U.S. government's official web portal to all federal, state and local government web resources and services.